Time;durP1;ratioP1;P1;durP2;ratioP2;P2;SDS_P1;SDS_P2;PMS_P1;PMS_P2;Temp;Humidity;BMP_temperature;BMP_pressure;BME280_temperature;BME280_humidity;BME280_pressure;Samples;Min_cycle;Max_cycle;Signal;HPM_P1;HPM_P2
2023/08/17 00:02:13;;;;;;;20.42;18.83;;;;;;;26.08;55.10;100496.59;4985647;28;97269;-82
2023/08/17 00:04:40;;;;;;;20.60;18.88;;;;;;;26.09;55.24;100509.09;4987321;28;99354;-82
2023/08/17 00:07:06;;;;;;;19.58;18.23;;;;;;;26.07;55.41;100502.16;4987639;28;98438;-82
2023/08/17 00:09:32;;;;;;;20.30;18.90;;;;;;;26.08;55.80;100507.38;4983702;28;96859;-82
2023/08/17 00:11:57;;;;;;;20.23;18.83;;;;;;;26.01;55.71;100503.59;4984916;28;96870;-82
2023/08/17 00:14:23;;;;;;;20.50;18.75;;;;;;;26.05;55.75;100515.72;4983038;28;99119;-82
2023/08/17 00:16:50;;;;;;;19.55;18.25;;;;;;;26.07;56.01;100519.13;4978700;28;98311;-82
2023/08/17 00:19:15;;;;;;;20.80;19.40;;;;;;;26.04;55.71;100519.44;4976253;28;96711;-82
2023/08/17 00:21:41;;;;;;;20.63;19.02;;;;;;;26.04;55.92;100516.75;4980135;28;97217;-82
2023/08/17 00:24:06;;;;;;;20.00;18.50;;;;;;;26.02;56.04;100520.56;4980889;28;99296;-82
2023/08/17 00:26:32;;;;;;;20.92;19.27;;;;;;;25.96;56.46;100520.16;4977610;28;98709;-82
2023/08/17 00:28:58;;;;;;;20.15;18.75;;;;;;;25.95;56.24;100518.47;4991637;28;97215;-82
2023/08/17 00:31:23;;;;;;;20.40;18.90;;;;;;;25.94;56.33;100519.44;4973011;28;96910;-82
2023/08/17 00:33:49;;;;;;;20.20;18.70;;;;;;;25.99;56.48;100532.47;4989358;28;99034;-82
2023/08/17 00:36:15;;;;;;;20.85;19.27;;;;;;;25.90;56.55;100542.25;4988670;28;97659;-82
2023/08/17 00:38:40;;;;;;;20.60;19.20;;;;;;;25.27;58.47;100582.19;4995344;28;96789;-82
2023/08/17 00:41:06;;;;;;;21.25;19.25;;;;;;;24.28;60.92;100605.31;4976493;28;96868;-82
2023/08/17 00:43:31;;;;;;;21.08;19.58;;;;;;;23.73;61.17;100598.34;4976630;28;100934;-81
2023/08/17 00:45:57;;;;;;;20.50;19.10;;;;;;;23.36;61.36;100643.44;4990989;28;98326;-82
2023/08/17 00:48:23;;;;;;;21.38;19.90;;;;;;;22.93;62.36;100673.69;4943603;28;96968;-81
2023/08/17 00:50:50;;;;;;;20.23;18.90;;;;;;;22.94;62.58;100693.25;4990209;28;97184;-81
2023/08/17 00:53:16;;;;;;;20.52;19.13;;;;;;;22.83;62.10;100678.91;4975208;28;97986;-81
2023/08/17 00:55:42;;;;;;;20.15;18.67;;;;;;;22.94;61.53;100682.53;4977090;28;97703;-82
2023/08/17 00:58:08;;;;;;;20.77;18.85;;;;;;;23.25;61.28;100684.47;4993166;28;97481;-81
2023/08/17 01:00:34;;;;;;;21.90;19.80;;;;;;;23.34;62.15;100664.13;4990256;28;96858;-78
2023/08/17 01:02:59;;;;;;;21.80;19.80;;;;;;;23.50;62.55;100661.03;4991092;28;99257;-80
2023/08/17 01:05:25;;;;;;;24.67;21.60;;;;;;;23.37;63.72;100684.47;4975995;28;98590;-79
2023/08/17 01:07:51;;;;;;;21.52;19.80;;;;;;;23.23;63.82;100632.03;4989854;28;97027;-79
2023/08/17 01:10:17;;;;;;;21.95;20.33;;;;;;;23.49;63.66;100595.03;4989139;28;99407;-79
2023/08/17 01:12:48;;;;;;;23.50;21.33;;;;;;;23.42;63.87;100559.06;4972072;28;99024;-80
2023/08/17 01:15:28;;;;;;;22.02;20.02;;;;;;;23.44;63.81;100552.56;4976255;28;98613;-79
2023/08/17 01:18:22;;;;;;;21.35;19.67;;;;;;;23.26;63.94;100546.06;4974795;28;96932;-79
2023/08/17 01:20:48;;;;;;;21.63;19.92;;;;;;;23.35;64.61;100531.91;4992374;28;97021;-79
2023/08/17 01:23:14;;;;;;;21.52;20.02;;;;;;;23.54;64.51;100535.72;4972061;28;97662;-79
2023/08/17 01:25:39;;;;;;;20.70;19.23;;;;;;;23.58;63.98;100535.31;4984686;28;99381;-79
2023/08/17 01:28:05;;;;;;;20.73;19.27;;;;;;;23.68;64.14;100559.53;4982765;28;96679;-79
2023/08/17 01:30:45;;;;;;;20.73;19.23;;;;;;;23.49;64.49;100545.00;4979878;28;96595;-80
2023/08/17 01:33:14;;;;;;;20.43;19.00;;;;;;;23.47;64.95;100532.69;4959516;28;100881;-80
2023/08/17 01:35:55;;;;;;;21.52;19.95;;;;;;;23.59;64.41;100525.44;4964768;28;98292;-79
2023/08/17 01:38:22;;;;;;;20.40;19.00;;;;;;;23.71;63.62;100519.94;4976353;28;97053;-79
2023/08/17 01:40:49;;;;;;;20.55;19.02;;;;;;;23.83;63.05;100501.09;4974837;28;96976;-79
2023/08/17 01:43:16;;;;;;;19.60;18.20;;;;;;;23.97;62.67;100494.50;4964429;28;98164;-79
2023/08/17 01:45:43;;;;;;;20.58;19.05;;;;;;;23.95;62.25;100479.41;4973484;28;100210;-79
2023/08/17 01:48:09;;;;;;;20.13;18.77;;;;;;;23.98;61.79;100483.66;4944805;28;96907;-79
2023/08/17 01:50:35;;;;;;;20.23;18.73;;;;;;;24.04;61.38;100493.00;4970554;28;96999;-80
2023/08/17 01:53:01;;;;;;;21.52;20.02;;;;;;;24.02;61.71;100487.75;4991423;28;98869;-80
2023/08/17 01:55:27;;;;;;;20.52;19.23;;;;;;;23.83;62.66;100475.13;4973544;28;100153;-80
2023/08/17 01:57:52;;;;;;;19.80;18.48;;;;;;;23.78;62.67;100480.03;4965692;28;96939;-80
2023/08/17 02:00:18;;;;;;;20.67;18.60;;;;;;;23.77;62.55;100474.84;4973839;28;97080;-80
2023/08/17 02:02:43;;;;;;;20.17;18.77;;;;;;;23.81;62.52;100470.91;4979114;28;97860;-79
2023/08/17 02:05:11;;;;;;;20.67;19.15;;;;;;;23.78;62.50;100465.81;4973828;28;98497;-80
2023/08/17 02:07:36;;;;;;;20.80;19.25;;;;;;;23.78;62.63;100463.97;4985912;28;96805;-80
2023/08/17 02:10:02;;;;;;;22.75;18.73;;;;;;;23.80;62.37;100455.81;4979905;28;96847;-80
2023/08/17 02:12:28;;;;;;;21.40;19.80;;;;;;;23.70;62.45;100450.38;4974476;28;99027;-80
2023/08/17 02:14:53;;;;;;;20.50;19.00;;;;;;;23.72;62.63;100459.16;4958495;28;100549;-80
2023/08/17 02:17:21;;;;;;;20.38;19.05;;;;;;;23.68;62.66;100455.00;4975225;28;96864;-80
2023/08/17 02:19:47;;;;;;;19.77;18.45;;;;;;;23.68;62.78;100446.97;4975020;28;96877;-80
2023/08/17 02:22:14;;;;;;;21.02;19.58;;;;;;;23.62;62.93;100458.19;4992406;28;99136;-80
2023/08/17 02:24:40;;;;;;;21.13;19.42;;;;;;;23.60;62.91;100461.03;4973010;28;100610;-80
2023/08/17 02:27:07;;;;;;;20.40;19.00;;;;;;;23.64;62.94;100461.59;4985874;28;96724;-80
2023/08/17 02:29:32;;;;;;;20.75;19.02;;;;;;;23.60;62.91;100454.81;4990939;28;97180;-80
2023/08/17 02:31:59;;;;;;;21.38;19.77;;;;;;;23.46;62.90;100450.66;4981546;28;99159;-80
2023/08/17 02:34:26;;;;;;;21.20;19.77;;;;;;;23.35;62.97;100461.44;4972191;28;100293;-80
2023/08/17 02:36:51;;;;;;;20.63;19.13;;;;;;;23.41;62.98;100471.63;4986689;28;96774;-80
2023/08/17 02:39:17;;;;;;;21.50;19.80;;;;;;;23.34;63.05;100465.09;4980649;28;96926;-80
2023/08/17 02:41:44;;;;;;;20.88;19.27;;;;;;;23.17;63.68;100456.66;4975214;28;98827;-80
2023/08/17 02:44:10;;;;;;;21.63;20.00;;;;;;;22.81;65.38;100468.59;4956351;28;98713;-80
2023/08/17 02:46:36;;;;;;;19.70;18.30;;;;;;;23.00;65.13;100458.06;4974782;28;96810;-80
2023/08/17 02:49:01;;;;;;;21.17;19.42;;;;;;;23.09;64.72;100455.63;4974556;28;97388;-80
2023/08/17 02:51:27;;;;;;;21.58;20.13;;;;;;;23.06;64.88;100467.41;4992104;28;98968;-80
2023/08/17 02:53:53;;;;;;;20.80;19.30;;;;;;;23.00;64.50;100471.47;4991187;28;98689;-80
2023/08/17 02:56:18;;;;;;;20.75;19.27;;;;;;;23.10;64.49;100478.75;4992785;28;96759;-80
2023/08/17 02:58:44;;;;;;;21.10;19.52;;;;;;;23.14;64.37;100485.53;4985825;28;96877;-80
2023/08/17 03:01:10;;;;;;;21.23;19.73;;;;;;;23.13;64.01;100468.63;4984624;28;98883;-81
2023/08/17 03:03:35;;;;;;;21.13;19.40;;;;;;;23.17;63.56;100479.91;4984750;28;98318;-81
2023/08/17 03:06:05;;;;;;;21.15;19.75;;;;;;;23.20;63.66;100476.97;4981515;28;97281;-80
2023/08/17 03:08:30;;;;;;;21.75;20.02;;;;;;;23.22;64.02;100478.53;4982659;28;97127;-80
2023/08/17 03:10:56;;;;;;;21.15;19.75;;;;;;;23.25;64.19;100489.00;4977243;28;98954;-80
2023/08/17 03:13:22;;;;;;;21.75;20.20;;;;;;;23.24;64.21;100494.47;4980781;28;98222;-81
2023/08/17 03:15:47;;;;;;;22.08;20.17;;;;;;;23.23;64.35;100498.13;4976055;28;97330;-81
2023/08/17 03:18:14;;;;;;;22.02;20.17;;;;;;;23.31;64.16;100510.88;4973159;28;97907;-80
2023/08/17 03:20:40;;;;;;;21.67;19.98;;;;;;;23.31;63.81;100516.25;4973675;28;99130;-81
2023/08/17 03:23:07;;;;;;;21.80;20.05;;;;;;;23.18;64.00;100529.78;4991823;28;99190;-81
2023/08/17 03:25:33;;;;;;;21.90;20.30;;;;;;;23.19;64.10;100524.31;4969346;28;97049;-80
2023/08/17 03:27:59;;;;;;;21.33;19.73;;;;;;;23.21;64.19;100530.41;4984230;28;96792;-80
2023/08/17 03:30:26;;;;;;;21.90;20.30;;;;;;;23.24;64.04;100522.13;4970483;28;100465;-80
2023/08/17 03:32:51;;;;;;;21.83;20.13;;;;;;;23.26;63.98;100535.38;4989481;28;97288;-80
2023/08/17 03:35:17;;;;;;;21.90;20.20;;;;;;;23.21;64.20;100522.38;4952678;28;97761;-80
2023/08/17 03:37:43;;;;;;;21.50;19.77;;;;;;;23.26;64.38;100530.00;4971693;28;97536;-80
2023/08/17 03:40:10;;;;;;;21.65;20.10;;;;;;;23.25;64.14;100526.50;4966811;28;100628;-80
2023/08/17 03:42:36;;;;;;;21.90;20.10;;;;;;;23.26;64.24;100528.19;4978971;28;98714;-80
2023/08/17 03:45:02;;;;;;;21.20;19.50;;;;;;;23.31;64.21;100532.31;4965275;28;96857;-80
2023/08/17 03:47:28;;;;;;;21.65;20.05;;;;;;;23.26;64.26;100525.50;4971702;28;97138;-81
2023/08/17 03:49:54;;;;;;;21.80;20.30;;;;;;;23.27;64.49;100526.34;4971341;28;99123;-80
2023/08/17 03:52:19;;;;;;;22.17;20.48;;;;;;;23.27;64.21;100521.00;4985950;28;98431;-81
2023/08/17 03:54:46;;;;;;;22.80;21.20;;;;;;;23.25;64.46;100529.16;4973887;28;96702;-81
2023/08/17 03:57:12;;;;;;;20.77;19.27;;;;;;;23.24;64.44;100531.97;4975959;28;97361;-81
2023/08/17 03:59:38;;;;;;;21.13;19.52;;;;;;;23.28;64.62;100534.25;4986625;28;98729;-81
2023/08/17 04:02:03;;;;;;;21.50;20.05;;;;;;;23.29;65.00;100535.09;4986881;28;98886;-81
2023/08/17 04:04:29;;;;;;;21.80;20.10;;;;;;;23.28;64.87;100538.78;4985857;28;97424;-81
2023/08/17 04:06:56;;;;;;;21.98;20.38;;;;;;;23.25;64.52;100544.38;4974219;28;97196;-81
2023/08/17 04:09:22;;;;;;;22.33;20.25;;;;;;;23.30;64.51;100552.03;4990430;28;98855;-81
2023/08/17 04:11:47;;;;;;;23.33;21.38;;;;;;;23.36;64.81;100555.06;4974287;28;99038;-81
2023/08/17 04:14:13;;;;;;;20.88;19.48;;;;;;;23.40;64.83;100550.28;4960919;28;96800;-81
2023/08/17 04:16:39;;;;;;;21.95;20.27;;;;;;;23.43;64.86;100550.88;4982569;28;97328;-81
2023/08/17 04:19:05;;;;;;;21.42;19.92;;;;;;;23.36;65.22;100538.97;4976808;28;100403;-81
2023/08/17 04:21:30;;;;;;;22.52;20.73;;;;;;;23.45;65.32;100548.06;4976087;28;100609;-81
2023/08/17 04:23:57;;;;;;;21.60;20.10;;;;;;;23.47;65.29;100556.81;4976856;28;96873;-81
2023/08/17 04:26:23;;;;;;;22.40;20.58;;;;;;;23.51;65.28;100555.59;4974499;28;97144;-81
2023/08/17 04:28:49;;;;;;;21.15;19.73;;;;;;;23.55;65.26;100556.16;4974611;28;100695;-80
2023/08/17 04:31:17;;;;;;;21.85;20.15;;;;;;;23.54;65.11;100546.44;4976497;28;100297;-81
2023/08/17 04:33:44;;;;;;;22.38;20.40;;;;;;;23.64;64.88;100566.09;4944998;28;96866;-81
2023/08/17 04:36:10;;;;;;;22.48;20.63;;;;;;;23.69;64.66;100580.81;4976642;28;96882;-81
2023/08/17 04:38:37;;;;;;;23.55;21.52;;;;;;;23.60;64.74;100600.34;4966842;28;100156;-81
2023/08/17 04:41:02;;;;;;;22.88;21.10;;;;;;;23.54;65.05;100600.03;4973231;28;100051;-81
2023/08/17 04:43:29;;;;;;;22.67;20.88;;;;;;;23.52;64.73;100594.78;4969466;28;96847;-81
2023/08/17 04:45:55;;;;;;;22.13;20.65;;;;;;;23.46;64.90;100614.06;4991448;28;97260;-81
2023/08/17 04:48:21;;;;;;;22.13;20.42;;;;;;;23.53;64.62;100614.38;4967315;28;100960;-81
2023/08/17 04:50:48;;;;;;;22.75;20.80;;;;;;;23.61;64.40;100603.88;4975979;28;100764;-80
2023/08/17 04:53:14;;;;;;;22.27;20.77;;;;;;;23.68;64.18;100608.59;4993658;28;96744;-81
2023/08/17 04:55:40;;;;;;;22.17;20.58;;;;;;;23.66;64.00;100601.66;4972387;28;96944;-81
2023/08/17 04:58:06;;;;;;;21.67;20.17;;;;;;;23.71;63.72;100604.84;4993784;28;98201;-81
2023/08/17 05:00:33;;;;;;;22.10;20.55;;;;;;;23.77;63.89;100606.16;4968610;28;100070;-81
2023/08/17 05:02:58;;;;;;;23.00;21.25;;;;;;;23.72;63.68;100601.19;4991950;28;96852;-81
2023/08/17 05:05:29;;;;;;;22.60;20.77;;;;;;;23.82;63.39;100598.56;4976191;28;96836;-81
2023/08/17 05:07:55;;;;;;;21.40;19.92;;;;;;;23.81;62.91;100596.88;4975980;28;100578;-81
2023/08/17 05:10:21;;;;;;;20.98;19.40;;;;;;;23.72;63.33;100598.50;4992738;28;98741;-81
2023/08/17 05:12:47;;;;;;;21.80;20.30;;;;;;;23.90;63.15;100590.72;4974754;28;96752;-81
2023/08/17 05:15:12;;;;;;;21.17;19.77;;;;;;;23.98;62.83;100587.38;4983065;28;97135;-81
2023/08/17 05:17:39;;;;;;;21.35;19.95;;;;;;;24.06;62.70;100582.22;4991765;28;98880;-81
2023/08/17 05:20:05;;;;;;;22.13;20.52;;;;;;;24.15;62.50;100582.25;4972240;28;100583;-81
2023/08/17 05:22:31;;;;;;;21.33;19.67;;;;;;;24.37;62.19;100583.88;4975235;28;96875;-81
2023/08/17 05:24:57;;;;;;;21.50;20.00;;;;;;;24.36;62.02;100584.88;4988672;28;96903;-81
2023/08/17 05:27:22;;;;;;;21.52;20.00;;;;;;;24.39;62.11;100594.50;4974120;28;100768;-81
2023/08/17 05:29:48;;;;;;;22.92;21.10;;;;;;;24.55;62.03;100612.78;4974376;28;100307;-81
2023/08/17 05:32:14;;;;;;;22.15;20.52;;;;;;;25.25;60.04;100611.03;4958560;28;96848;-81
2023/08/17 05:34:41;;;;;;;22.02;20.30;;;;;;;24.90;60.85;100611.50;4974827;28;97350;-81
2023/08/17 05:37:07;;;;;;;23.65;21.67;;;;;;;25.00;60.82;100617.75;4974421;28;100436;-81
2023/08/17 05:39:33;;;;;;;21.95;20.48;;;;;;;25.36;60.25;100616.25;4973935;28;100388;-81
2023/08/17 05:41:59;;;;;;;21.90;20.30;;;;;;;25.77;59.02;100608.03;4981678;28;96821;-81
2023/08/17 05:44:25;;;;;;;22.30;20.42;;;;;;;26.24;57.27;100608.97;4963534;28;96945;-80
2023/08/17 05:46:50;;;;;;;23.02;21.33;;;;;;;25.68;58.88;100599.84;4974596;28;100715;-81
2023/08/17 05:49:16;;;;;;;23.70;21.50;;;;;;;25.51;59.16;100596.06;4974108;28;100440;-81
2023/08/17 05:51:41;;;;;;;22.08;20.27;;;;;;;25.44;59.33;100591.38;4974200;28;96941;-81
2023/08/17 05:54:07;;;;;;;23.10;21.00;;;;;;;25.33;59.53;100596.91;4990044;28;96892;-81
2023/08/17 05:56:32;;;;;;;21.80;20.30;;;;;;;25.57;59.05;100594.66;4992208;28;99052;-81
2023/08/17 05:58:58;;;;;;;22.20;20.50;;;;;;;25.68;59.03;100599.00;4989175;28;98272;-80
2023/08/17 06:01:23;;;;;;;22.08;20.35;;;;;;;25.84;58.12;100593.94;4988239;28;96760;-80
2023/08/17 06:03:49;;;;;;;22.50;20.58;;;;;;;25.77;57.96;100592.75;4984887;28;96808;-80
2023/08/17 06:06:15;;;;;;;23.90;21.52;;;;;;;25.61;58.22;100596.03;4989801;28;99315;-80
2023/08/17 06:08:40;;;;;;;22.70;20.98;;;;;;;25.53;58.51;100591.38;4992469;28;98963;-80
2023/08/17 06:11:06;;;;;;;23.03;21.17;;;;;;;25.59;58.37;100592.63;4940389;28;1281701;-81
2023/08/17 06:13:31;;;;;;;23.42;21.63;;;;;;;25.49;58.94;100591.81;4982721;28;96917;-80
2023/08/17 06:15:57;;;;;;;24.02;22.00;;;;;;;25.38;58.82;100594.63;4977667;28;98996;-80
2023/08/17 06:18:23;;;;;;;23.40;21.52;;;;;;;25.26;59.71;100591.25;4992515;28;98831;-80
2023/08/17 06:20:51;;;;;;;23.70;21.50;;;;;;;25.15;60.27;100594.06;4993134;28;96639;-81
2023/08/17 06:23:17;;;;;;;24.10;22.15;;;;;;;25.15;61.19;100604.81;4989398;28;97482;-81
2023/08/17 06:25:43;;;;;;;24.20;21.90;;;;;;;25.06;61.67;100603.75;4988402;28;99044;-81
2023/08/17 06:28:08;;;;;;;23.98;22.10;;;;;;;24.92;61.74;100605.00;4987483;28;99021;-81
2023/08/17 06:30:34;;;;;;;25.33;22.88;;;;;;;24.83;61.36;100604.00;4986047;28;96943;-81
2023/08/17 06:32:59;;;;;;;23.85;21.73;;;;;;;24.81;60.82;100607.81;4967537;28;96913;-80
2023/08/17 06:35:25;;;;;;;23.88;21.85;;;;;;;24.79;61.12;100605.25;4983902;28;99076;-80
2023/08/17 06:37:53;;;;;;;23.67;21.30;;;;;;;24.73;61.69;100608.50;4979579;28;97924;-81
2023/08/17 06:40:19;;;;;;;23.80;22.10;;;;;;;24.82;61.42;100612.19;4976100;28;97338;-80
2023/08/17 06:42:44;;;;;;;23.13;21.08;;;;;;;24.87;61.42;100609.09;4981779;28;96901;-80
2023/08/17 06:45:10;;;;;;;23.88;22.00;;;;;;;24.99;61.26;100616.06;4981382;28;97545;-81
2023/08/17 06:47:36;;;;;;;24.13;22.10;;;;;;;24.93;61.08;100613.91;4973772;28;98681;-80
2023/08/17 06:50:02;;;;;;;23.98;21.63;;;;;;;25.00;60.66;100618.59;4983004;28;96779;-81
2023/08/17 06:52:27;;;;;;;22.05;20.35;;;;;;;25.12;60.85;100629.22;4992964;28;97693;-80
2023/08/17 06:54:53;;;;;;;23.80;21.63;;;;;;;24.77;61.02;100620.66;4990765;28;98628;-80
2023/08/17 06:57:18;;;;;;;23.75;21.83;;;;;;;24.80;61.38;100614.16;4989220;28;98174;-81
2023/08/17 06:59:45;;;;;;;23.27;21.40;;;;;;;24.82;60.90;100614.88;4989231;28;96733;-80
2023/08/17 07:02:11;;;;;;;23.52;21.63;;;;;;;24.83;61.07;100609.38;4974649;28;96803;-80
2023/08/17 07:04:37;;;;;;;22.30;20.70;;;;;;;24.85;60.92;100593.97;4986834;28;98614;-80
2023/08/17 07:07:03;;;;;;;23.02;21.25;;;;;;;25.12;60.45;100608.56;4992376;28;98462;-80
2023/08/17 07:09:28;;;;;;;22.70;21.02;;;;;;;25.28;59.80;100610.75;4991559;28;96735;-80
2023/08/17 07:11:55;;;;;;;23.40;21.65;;;;;;;25.67;58.78;100614.28;4981510;28;96767;-80
2023/08/17 07:14:20;;;;;;;24.88;22.33;;;;;;;26.31;57.45;100623.53;4979546;28;99065;-80
2023/08/17 07:16:46;;;;;;;23.17;21.33;;;;;;;27.02;55.16;100622.09;4982535;28;98487;-80
2023/08/17 07:19:13;;;;;;;24.13;22.15;;;;;;;28.17;51.91;100632.09;4991922;28;96819;-80
2023/08/17 07:21:39;;;;;;;22.95;21.02;;;;;;;29.82;49.15;100631.66;4992285;28;96778;-80
2023/08/17 07:24:13;;;;;;;23.92;21.60;;;;;;;32.83;43.67;100624.47;4987957;28;98886;-81
2023/08/17 07:26:38;;;;;;;23.85;21.45;;;;;;;34.41;40.44;100628.91;4982292;28;98045;-81
2023/08/17 07:29:04;;;;;;;23.45;21.55;;;;;;;33.44;41.10;100621.41;4985227;28;96637;-81
2023/08/17 07:31:30;;;;;;;23.42;21.40;;;;;;;32.98;42.25;100628.00;4980677;28;96823;-81
2023/08/17 07:33:56;;;;;;;23.38;21.25;;;;;;;38.13;34.28;100619.28;4981668;28;98690;-81
2023/08/17 07:36:21;;;;;;;23.48;21.55;;;;;;;40.60;30.37;100603.53;4986464;28;98437;-81
2023/08/17 07:38:47;;;;;;;23.45;21.48;;;;;;;39.80;30.79;100607.81;4978074;28;96738;-81
2023/08/17 07:41:13;;;;;;;21.77;20.02;;;;;;;38.54;31.92;100593.94;4991726;28;97401;-81
2023/08/17 07:43:38;;;;;;;21.83;20.27;;;;;;;42.16;27.05;100600.25;4979942;28;99049;-81
2023/08/17 07:46:04;;;;;;;23.63;21.48;;;;;;;41.40;27.39;100603.44;4973879;28;99031;-81
2023/08/17 07:48:33;;;;;;;21.45;19.40;;;;;;;40.96;27.85;100602.34;4972162;28;96855;-82
2023/08/17 07:50:59;;;;;;;22.40;20.70;;;;;;;45.17;23.34;100601.78;4988293;28;96838;-81
2023/08/17 07:53:25;;;;;;;21.90;20.27;;;;;;;46.84;21.71;100608.38;4989078;28;98670;-82
2023/08/17 07:55:50;;;;;;;21.35;19.60;;;;;;;45.71;23.14;100608.75;4991604;28;98569;-81
2023/08/17 07:58:16;;;;;;;21.33;19.92;;;;;;;48.64;20.21;100591.66;4987843;28;96790;-82
2023/08/17 08:00:42;;;;;;;21.73;19.83;;;;;;;47.70;21.48;100598.56;4986556;28;96815;-82
2023/08/17 08:03:07;;;;;;;21.65;19.77;;;;;;;49.58;19.69;100593.56;4991594;28;99473;-82
2023/08/17 08:05:33;;;;;;;21.92;20.20;;;;;;;52.08;17.02;100586.94;4979762;28;98860;-82
2023/08/17 08:07:59;;;;;;;21.63;20.00;;;;;;;53.61;16.04;100593.22;4982023;28;96801;-82
2023/08/17 08:10:24;;;;;;;21.95;20.35;;;;;;;54.41;15.95;100591.72;4964553;28;96908;-82
2023/08/17 08:12:50;;;;;;;21.45;19.95;;;;;;;55.65;15.20;100586.25;4981305;28;98438;-82
2023/08/17 08:15:16;;;;;;;22.02;20.20;;;;;;;56.39;13.89;100583.47;4974848;28;98835;-82
2023/08/17 08:17:41;;;;;;;21.73;20.20;;;;;;;51.82;16.87;100584.84;4985026;28;96880;-82
2023/08/17 08:20:07;;;;;;;20.40;18.92;;;;;;;51.88;17.39;100584.72;4988325;28;96762;-82
2023/08/17 08:22:33;;;;;;;20.90;19.25;;;;;;;50.72;17.66;100575.03;4990512;28;98897;-81
2023/08/17 08:24:58;;;;;;;20.52;19.13;;;;;;;52.17;17.15;100584.16;4983137;28;98658;-82
2023/08/17 08:27:24;;;;;;;21.17;19.58;;;;;;;49.78;19.27;100578.41;4977650;28;97258;-82
2023/08/17 08:29:50;;;;;;;20.98;19.48;;;;;;;49.54;19.34;100575.75;4985527;28;96815;-82
2023/08/17 08:32:16;;;;;;;20.85;19.27;;;;;;;48.63;19.83;100588.03;4983760;28;98920;-82
2023/08/17 08:34:41;;;;;;;21.15;19.58;;;;;;;52.45;16.93;100570.72;4978913;28;98663;-82
2023/08/17 08:37:07;;;;;;;22.08;20.63;;;;;;;54.64;15.41;100573.38;4978031;28;96963;-81
2023/08/17 08:39:32;;;;;;;20.95;19.48;;;;;;;56.26;14.35;100571.38;4981018;28;97222;-82
2023/08/17 08:41:58;;;;;;;21.35;19.90;;;;;;;55.95;13.91;100581.28;4979589;28;98917;-82
2023/08/17 08:44:24;;;;;;;21.08;19.50;;;;;;;54.93;14.66;100577.25;4984225;28;100441;-82
2023/08/17 08:46:50;;;;;;;20.65;19.15;;;;;;;50.39;17.58;100573.53;4983448;28;96811;-82
2023/08/17 08:49:23;;;;;;;21.08;19.58;;;;;;;47.77;19.80;100578.78;4943426;28;96777;-82
2023/08/17 08:51:50;;;;;;;21.30;19.80;;;;;;;50.71;17.86;100569.78;4972993;28;98931;-82
2023/08/17 08:54:22;;;;;;;21.42;20.00;;;;;;;52.69;16.48;100567.47;4990698;28;98423;-82
2023/08/17 08:56:51;;;;;;;22.02;20.10;;;;;;;54.98;14.54;100571.44;4991178;28;97134;-83
2023/08/17 08:59:17;;;;;;;22.27;20.58;;;;;;;51.58;16.86;100565.63;4991373;28;98539;-82
2023/08/17 09:01:43;;;;;;;23.10;21.50;;;;;;;53.25;15.88;100564.78;4976267;28;98795;-82
2023/08/17 09:04:09;;;;;;;21.55;20.05;;;;;;;53.31;15.93;100560.63;4976183;28;98746;-81
2023/08/17 09:06:35;;;;;;;22.45;20.75;;;;;;;51.46;17.12;100561.78;4987297;28;96771;-82
2023/08/17 09:09:02;;;;;;;21.77;20.08;;;;;;;50.15;17.83;100562.59;4976033;28;97239;-81
2023/08/17 09:11:28;;;;;;;21.70;19.98;;;;;;;47.69;19.97;100565.50;4985254;28;99098;-81
2023/08/17 09:13:56;;;;;;;21.75;20.25;;;;;;;44.76;22.57;100561.31;4978092;28;98785;-81
2023/08/17 09:16:22;;;;;;;22.55;20.42;;;;;;;41.25;26.26;100581.16;4980243;28;96772;-81
2023/08/17 09:18:48;;;;;;;21.30;19.90;;;;;;;39.60;28.23;100573.22;4993537;28;96981;-81
2023/08/17 09:21:23;;;;;;;6.53;4.43;;;;;;;39.63;28.72;100577.41;4990783;28;98894;-81
2023/08/17 09:23:55;;;;;;;3.40;2.28;;;;;;;40.16;28.32;100572.88;4990440;28;98802;-81
2023/08/17 09:26:23;;;;;;;7.13;2.42;;;;;;;40.51;27.92;100575.56;4987470;28;97076;-81
2023/08/17 09:28:54;;;;;;;5.45;2.40;;;;;;;40.09;28.44;100566.66;4986072;28;96842;-81
2023/08/17 09:31:21;;;;;;;4.00;2.13;;;;;;;40.36;28.51;100564.25;4972626;28;99044;-81
2023/08/17 09:33:49;;;;;;;5.20;2.20;;;;;;;39.41;29.50;100570.81;4982733;28;98446;-81
2023/08/17 09:36:15;;;;;;;3.75;2.40;;;;;;;38.39;30.47;100566.06;4975872;28;97818;-81
2023/08/17 09:38:41;;;;;;;21.35;19.90;;;;;;;38.08;30.99;100567.06;4984302;28;96841;-81
2023/08/17 09:41:06;;;;;;;22.08;20.48;;;;;;;37.54;31.43;100558.50;4979358;28;98699;-81
2023/08/17 09:43:33;;;;;;;22.00;20.50;;;;;;;36.92;31.98;100558.28;4968707;28;98350;-81
2023/08/17 09:46:01;;;;;;;21.88;20.38;;;;;;;36.80;32.77;100560.88;4972347;28;97997;-80
2023/08/17 09:48:27;;;;;;;22.70;20.95;;;;;;;35.49;33.60;100564.50;4941309;28;96928;-81
2023/08/17 09:50:56;;;;;;;22.88;21.20;;;;;;;35.03;34.11;100550.78;4976567;28;98869;-81
2023/08/17 09:53:22;;;;;;;23.38;21.23;;;;;;;35.34;34.72;100555.66;4992597;28;98353;-81
2023/08/17 09:55:48;;;;;;;21.33;19.92;;;;;;;35.29;34.49;100550.00;4989217;28;97197;-81
2023/08/17 09:58:17;;;;;;;21.92;20.23;;;;;;;35.35;35.09;100551.91;4990609;28;96614;-81
2023/08/17 10:00:49;;;;;;;22.50;20.70;;;;;;;35.03;35.25;100546.16;4989339;28;98801;-81
2023/08/17 10:03:15;;;;;;;21.45;19.80;;;;;;;34.60;35.63;100546.47;4988283;28;98460;-81
2023/08/17 10:05:43;;;;;;;20.75;19.35;;;;;;;34.73;36.03;100548.38;4987607;28;96848;-80
2023/08/17 10:08:11;;;;;;;21.02;19.52;;;;;;;34.68;36.87;100545.44;4985353;28;96962;-81
2023/08/17 10:10:45;;;;;;;20.88;19.35;;;;;;;34.38;36.98;100542.97;4986569;28;99260;-81
2023/08/17 10:13:21;;;;;;;20.95;19.50;;;;;;;34.52;36.89;100546.59;4991887;28;98649;-81
2023/08/17 10:16:01;;;;;;;21.00;19.60;;;;;;;34.19;37.55;100546.47;4985751;28;96622;-81
2023/08/17 10:18:46;;;;;;;21.10;19.70;;;;;;;33.98;37.02;100548.19;4990914;28;96840;-80
2023/08/17 10:21:28;;;;;;;22.35;20.67;;;;;;;33.67;38.11;100537.72;4974539;28;99313;-81
2023/08/17 10:23:56;;;;;;;21.75;20.23;;;;;;;33.82;38.21;100537.59;4989112;28;98418;-81
2023/08/17 10:26:22;;;;;;;21.45;19.95;;;;;;;33.69;38.14;100532.09;4972790;28;96905;-81
2023/08/17 10:28:48;;;;;;;21.40;19.70;;;;;;;33.69;37.86;100534.81;4984501;28;96976;-81
2023/08/17 10:31:13;;;;;;;21.17;19.73;;;;;;;33.78;38.22;100530.91;4983802;28;98956;-81
2023/08/17 10:33:41;;;;;;;21.58;20.08;;;;;;;33.78;38.85;100526.28;4970360;28;98947;-80
2023/08/17 10:36:07;;;;;;;22.38;20.33;;;;;;;32.85;38.78;100530.00;4990061;28;97158;-81
2023/08/17 10:38:33;;;;;;;21.75;19.80;;;;;;;32.35;39.19;100531.66;4969389;28;97472;-81
2023/08/17 10:41:12;;;;;;;21.90;20.23;;;;;;;31.98;39.53;100531.59;4978934;28;98626;-81
2023/08/17 10:43:55;;;;;;;21.58;20.02;;;;;;;32.35;40.15;100539.81;4975037;28;98762;-80
2023/08/17 10:46:20;;;;;;;21.63;20.25;;;;;;;31.76;40.09;100533.31;4980300;28;96947;-80
2023/08/17 10:48:46;;;;;;;20.48;19.08;;;;;;;31.67;40.61;100526.31;4992280;28;96983;-81
2023/08/17 10:51:13;;;;;;;22.25;20.02;;;;;;;31.74;40.83;100521.00;4992433;28;98489;-80
2023/08/17 10:53:42;;;;;;;20.90;19.50;;;;;;;32.02;40.17;100521.22;4991185;28;98402;-80
2023/08/17 10:56:11;;;;;;;21.73;20.30;;;;;;;32.02;40.71;100526.66;4989958;28;98747;-80
2023/08/17 10:58:37;;;;;;;21.65;19.98;;;;;;;31.72;41.38;100531.19;4988215;28;96857;-80
2023/08/17 11:01:03;;;;;;;21.27;19.58;;;;;;;31.26;42.14;100523.09;4984578;28;99100;-80
2023/08/17 11:03:28;;;;;;;21.30;19.90;;;;;;;31.48;41.85;100511.41;4991957;28;98884;-80
2023/08/17 11:05:56;;;;;;;21.35;19.65;;;;;;;31.50;41.06;100516.63;4969479;28;96870;-80
2023/08/17 11:08:28;;;;;;;21.90;20.35;;;;;;;30.65;41.92;100517.56;4984699;28;96777;-80